Time;durP1;ratioP1;P1;durP2;ratioP2;P2;SDS_P1;SDS_P2;PMS_P1;PMS_P2;Temp;Humidity;BMP_temperature;BMP_pressure;BME280_temperature;BME280_humidity;BME280_pressure;Samples;Min_cycle;Max_cycle;Signal;HPM_P1;HPM_P2
2021/01/14 00:04:14;;;;;;;8.90;2.33;;;5.30;99.90;;;;;;5075916;28;20253;-69
2021/01/14 00:06:40;;;;;;;5.90;2.00;;;5.30;99.90;;;;;;5075759;28;20546;-69
2021/01/14 00:09:05;;;;;;;3.97;1.70;;;5.30;99.90;;;;;;5075952;28;20178;-69
2021/01/14 00:14:52;;;;;;;6.80;1.83;;;5.20;99.90;;;;;;5075740;28;20156;-69
2021/01/14 00:17:18;;;;;;;10.20;2.50;;;5.20;99.90;;;;;;5075661;28;20779;-70
2021/01/14 00:23:06;;;;;;;12.50;1.90;;;5.10;99.90;;;;;;5075155;28;20157;-71
2021/01/14 00:25:31;;;;;;;6.47;2.27;;;5.10;99.90;;;;;;5075531;28;20424;-70
2021/01/14 00:27:57;;;;;;;8.37;3.43;;;5.00;99.90;;;;;;5075405;28;20217;-70
2021/01/14 00:30:30;;;;;;;6.53;1.90;;;5.00;99.90;;;;;;5075455;28;20507;-70
2021/01/14 00:32:56;;;;;;;4.37;1.80;;;5.00;99.90;;;;;;5075429;28;20170;-70
2021/01/14 00:35:22;;;;;;;8.47;1.70;;;5.00;99.90;;;;;;5075250;28;20434;-70
2021/01/14 00:37:51;;;;;;;9.93;2.20;;;4.90;99.90;;;;;;5075257;28;20418;-71
2021/01/14 00:40:35;;;;;;;4.93;2.10;;;4.90;99.90;;;;;;5075046;28;20419;-71
2021/01/14 00:43:08;;;;;;;3.87;2.20;;;4.90;99.90;;;;;;5075116;28;20233;-71
2021/01/14 00:45:34;;;;;;;7.10;2.00;;;4.90;99.90;;;;;;5075468;28;20792;-71
2021/01/14 00:48:00;;;;;;;6.20;2.13;;;4.90;99.90;;;;;;5075341;28;20462;-71
2021/01/14 00:50:26;;;;;;;11.73;1.90;;;4.80;99.90;;;;;;5074520;28;20424;-71
2021/01/14 00:52:52;;;;;;;8.47;1.90;;;4.80;99.90;;;;;;5075294;28;20519;-71
2021/01/14 00:55:18;;;;;;;10.33;2.57;;;4.80;99.90;;;;;;5074957;28;20427;-71
2021/01/14 00:57:45;;;;;;;8.93;2.00;;;4.80;99.90;;;;;;5075159;28;20433;-70
2021/01/14 01:00:28;;;;;;;6.73;2.03;;;4.70;99.90;;;;;;5074925;28;20417;-70
2021/01/14 01:02:55;;;;;;;7.30;1.87;;;4.70;99.90;;;;;;5075034;28;20465;-70
2021/01/14 01:05:21;;;;;;;5.27;1.93;;;4.70;99.90;;;;;;5074700;28;20478;-70
2021/01/14 01:07:59;;;;;;;6.20;2.03;;;4.70;99.90;;;;;;5074910;28;20461;-70
2021/01/14 01:10:26;;;;;;;6.93;1.57;;;4.70;99.90;;;;;;5074979;28;20410;-70
2021/01/14 01:16:15;;;;;;;6.60;1.80;;;4.70;99.90;;;;;;5074569;28;20936;-69
2021/01/14 01:18:42;;;;;;;4.30;2.13;;;4.60;99.90;;;;;;5074748;28;20470;-69
2021/01/14 01:21:08;;;;;;;10.73;2.60;;;4.70;99.90;;;;;;5074720;28;20826;-69
2021/01/14 01:23:33;;;;;;;10.20;2.03;;;4.70;99.90;;;;;;5074695;28;20427;-69
2021/01/14 01:25:59;;;;;;;7.53;2.07;;;4.60;99.90;;;;;;5074549;28;20569;-69
2021/01/14 01:28:24;;;;;;;12.63;2.07;;;4.70;99.90;;;;;;5074608;28;20564;-72
2021/01/14 01:30:50;;;;;;;12.00;1.97;;;4.60;99.90;;;;;;5074251;28;20582;-72
2021/01/14 01:33:15;;;;;;;4.50;1.93;;;4.60;99.90;;;;;;5074767;28;20178;-72
2021/01/14 01:35:41;;;;;;;4.53;1.50;;;4.60;99.90;;;;;;5074144;28;20215;-71
2021/01/14 01:41:29;;;;;;;3.63;1.50;;;4.70;99.90;;;;;;5073868;28;20706;-69
2021/01/14 01:43:54;;;;;;;10.13;2.43;;;4.60;99.90;;;;;;5074053;28;20440;-69
2021/01/14 01:46:28;;;;;;;4.47;2.00;;;4.60;99.90;;;;;;5074216;28;20198;-69
2021/01/14 01:48:55;;;;;;;12.87;3.10;;;4.60;99.90;;;;;;5075343;28;20170;-69
2021/01/14 01:51:22;;;;;;;5.00;2.30;;;4.60;99.90;;;;;;5075447;28;20802;-69
2021/01/14 01:53:48;;;;;;;9.63;2.30;;;4.60;99.90;;;;;;5074123;28;20414;-69
2021/01/14 01:56:16;;;;;;;8.27;2.00;;;4.60;99.90;;;;;;5074067;28;20496;-69
2021/01/14 01:58:42;;;;;;;3.47;1.57;;;4.60;99.90;;;;;;5073986;28;20420;-69
2021/01/14 02:01:08;;;;;;;10.53;1.93;;;4.60;99.90;;;;;;5073845;28;20519;-68
2021/01/14 02:03:34;;;;;;;7.00;1.20;;;4.50;99.90;;;;;;5073938;28;20174;-69
2021/01/14 02:06:00;;;;;;;7.77;2.10;;;4.50;99.90;;;;;;5073857;28;20504;-69
2021/01/14 02:08:35;;;;;;;8.53;2.40;;;4.50;99.90;;;;;;5073900;28;20465;-69
2021/01/14 02:11:17;;;;;;;7.93;2.37;;;4.50;99.90;;;;;;5073848;28;20180;-70
2021/01/14 02:14:18;;;;;;;2.20;1.27;;;4.50;99.90;;;;;;5074041;28;20424;-69
2021/01/14 02:16:44;;;;;;;9.83;1.67;;;4.50;99.90;;;;;;5073768;28;20429;-69
2021/01/14 02:19:15;;;;;;;8.03;1.57;;;4.50;99.90;;;;;;5073735;28;20416;-70
2021/01/14 02:21:42;;;;;;;8.40;3.40;;;4.50;99.90;;;;;;5073762;28;20423;-71
2021/01/14 06:31:09;;;;;;;3.53;2.80;;;3.90;99.90;;;;;;5783820;23;20498;-67
2021/01/14 06:33:36;;;;;;;7.40;2.40;;;3.90;99.90;;;;;;5073256;28;20430;-67
2021/01/14 06:36:12;;;;;;;10.53;3.13;;;4.00;99.90;;;;;;5073229;28;20510;-67
2021/01/14 06:38:48;;;;;;;3.23;1.90;;;3.90;99.90;;;;;;5073102;28;20463;-67
2021/01/14 06:41:21;;;;;;;4.30;2.20;;;3.80;99.90;;;;;;5073186;28;20429;-67
2021/01/14 06:43:49;;;;;;;11.60;2.50;;;3.80;99.90;;;;;;5073034;28;20430;-67
2021/01/14 06:46:20;;;;;;;4.50;2.30;;;3.80;99.90;;;;;;5073005;28;20433;-67
2021/01/14 06:49:13;;;;;;;8.83;2.60;;;3.70;99.90;;;;;;5074462;28;20484;-67
2021/01/14 06:51:56;;;;;;;7.87;2.80;;;3.70;99.90;;;;;;5077172;28;20424;-67
2021/01/14 06:54:24;;;;;;;9.43;2.60;;;3.70;99.90;;;;;;5077257;28;20889;-67
2021/01/14 06:57:13;;;;;;;13.30;3.60;;;3.70;99.90;;;;;;5076121;28;20438;-67
2021/01/14 06:59:39;;;;;;;7.90;3.03;;;3.80;99.90;;;;;;5077024;28;20440;-67
2021/01/14 07:02:04;;;;;;;7.70;2.57;;;3.90;99.90;;;;;;5077174;28;20500;-67
2021/01/14 07:04:37;;;;;;;5.30;2.70;;;3.90;99.90;;;;;;5081828;28;20434;-67
2021/01/14 07:07:25;;;;;;;6.90;2.73;;;3.90;99.90;;;;;;5083945;28;20524;-70
2021/01/14 07:10:11;;;;;;;6.97;2.70;;;3.90;99.90;;;;;;5082249;28;20435;-69
2021/01/14 07:12:38;;;;;;;14.80;3.50;;;3.90;99.90;;;;;;5083482;28;20431;-69
2021/01/14 07:15:14;;;;;;;4.43;2.53;;;4.00;99.90;;;;;;5086264;28;20785;-69
2021/01/14 07:17:42;;;;;;;5.03;2.10;;;4.00;99.90;;;;;;5084581;28;20597;-69
2021/01/14 07:20:12;;;;;;;4.57;2.80;;;4.00;99.90;;;;;;5084215;28;20435;-69
2021/01/14 07:22:50;;;;;;;8.00;2.43;;;4.10;99.90;;;;;;5085093;28;20506;-69
2021/01/14 07:25:16;;;;;;;3.67;2.60;;;4.10;99.90;;;;;;5085992;28;20434;-69
2021/01/14 07:27:43;;;;;;;12.90;2.70;;;4.20;99.90;;;;;;5085255;28;20479;-69
2021/01/14 07:30:10;;;;;;;13.53;3.07;;;4.20;99.90;;;;;;5138247;22;20486;-68
2021/01/14 07:36:19;;;;;;;3.80;1.87;;;4.20;99.90;;;;;;5076539;28;20502;-68
2021/01/14 07:38:50;;;;;;;9.80;2.80;;;4.30;99.90;;;;;;5076643;28;20428;-68
2021/01/14 07:41:15;;;;;;;4.97;2.23;;;4.30;99.90;;;;;;5076525;28;20450;-68
2021/01/14 07:43:45;;;;;;;6.20;2.40;;;4.30;99.90;;;;;;5076200;28;20922;-68
2021/01/14 07:46:25;;;;;;;6.90;2.30;;;4.30;99.90;;;;;;5076475;28;20219;-67
2021/01/14 07:48:52;;;;;;;8.20;3.83;;;4.30;99.90;;;;;;5076486;28;20473;-68
2021/01/14 07:54:57;;;;;;;3.50;2.70;;;4.40;99.90;;;;;;5076172;28;20431;-68
2021/01/14 08:01:06;;;;;;;4.80;2.97;;;4.50;99.90;;;;;;5075645;28;20880;-68
2021/01/14 08:06:54;;;;;;;7.70;3.33;;;4.40;99.90;;;;;;5075893;28;20829;-69
2021/01/14 08:09:19;;;;;;;6.20;4.00;;;4.40;99.90;;;;;;5076118;28;20522;-68
2021/01/14 08:15:08;;;;;;;4.17;3.70;;;4.40;99.90;;;;;;5075946;28;20524;-78
2021/01/14 08:17:34;;;;;;;5.00;3.50;;;4.40;99.90;;;;;;5076094;28;20455;-74
2021/01/14 08:23:21;;;;;;;5.80;3.30;;;4.30;99.90;;;;;;5075899;28;20544;-73
2021/01/14 08:25:47;;;;;;;6.07;3.50;;;4.30;99.90;;;;;;5075898;28;20498;-73
2021/01/14 08:28:12;;;;;;;5.40;3.33;;;4.30;99.90;;;;;;5075517;28;20618;-71
2021/01/14 08:30:41;;;;;;;11.30;4.10;;;4.30;99.90;;;;;;5075293;28;20221;-70
2021/01/14 08:36:41;;;;;;;4.57;3.77;;;4.40;99.90;;;;;;5075429;28;20413;-72
2021/01/14 08:39:10;;;;;;;5.57;3.00;;;4.40;99.90;;;;;;5075661;28;20426;-71
2021/01/14 08:41:37;;;;;;;6.20;4.20;;;4.50;99.90;;;;;;5075260;28;20432;-70
2021/01/14 08:47:53;;;;;;;2.90;2.70;;;4.50;99.90;;;;;;5075176;28;20487;-70
2021/01/14 08:50:31;;;;;;;6.47;2.80;;;4.50;99.90;;;;;;5073838;28;21037;-70
2021/01/14 08:53:00;;;;;;;4.97;2.33;;;4.50;99.90;;;;;;5075465;28;20487;-71
2021/01/14 08:55:28;;;;;;;3.83;2.70;;;4.50;99.90;;;;;;5075650;28;20763;-71
2021/01/14 08:57:55;;;;;;;5.77;3.60;;;4.60;99.90;;;;;;5075333;28;20795;-71
2021/01/14 09:03:44;;;;;;;7.63;2.97;;;4.50;99.90;;;;;;5075030;28;20550;-71
2021/01/14 09:06:10;;;;;;;4.60;2.73;;;4.70;99.90;;;;;;5075036;28;20424;-70
2021/01/14 09:08:35;;;;;;;6.87;2.90;;;4.70;99.90;;;;;;5075011;28;20438;-72
2021/01/14 09:11:01;;;;;;;4.10;2.40;;;4.70;99.90;;;;;;5074237;28;20176;-72
2021/01/14 09:13:29;;;;;;;7.77;3.20;;;4.70;99.90;;;;;;5074906;28;20166;-71
2021/01/14 09:15:57;;;;;;;5.03;2.97;;;4.60;99.90;;;;;;5074904;28;20180;-72
2021/01/14 09:18:34;;;;;;;4.27;3.07;;;4.70;99.90;;;;;;5074827;28;20553;-68
2021/01/14 09:21:00;;;;;;;6.40;3.50;;;4.70;99.90;;;;;;5075330;28;20427;-71
2021/01/14 09:23:32;;;;;;;6.43;3.00;;;4.70;99.90;;;;;;5074926;28;20836;-71
2021/01/14 09:25:59;;;;;;;5.00;3.07;;;4.80;99.90;;;;;;5074489;28;20451;-72
2021/01/14 09:28:27;;;;;;;8.30;3.00;;;4.80;99.90;;;;;;5074141;28;20826;-72
2021/01/14 09:31:06;;;;;;;6.40;4.17;;;4.70;99.90;;;;;;5074261;28;20513;-71
2021/01/14 09:33:35;;;;;;;4.10;3.17;;;4.80;99.90;;;;;;5075388;28;20420;-72
2021/01/14 09:36:08;;;;;;;6.93;3.60;;;4.80;99.90;;;;;;5073035;28;20947;-71
2021/01/14 09:38:48;;;;;;;4.23;3.53;;;4.90;99.90;;;;;;5074485;28;20421;-71
2021/01/14 09:41:33;;;;;;;5.23;3.60;;;4.90;99.90;;;;;;5074142;28;20412;-71
2021/01/14 09:44:01;;;;;;;7.73;3.70;;;4.90;99.90;;;;;;5074995;28;20435;-71
2021/01/14 09:46:29;;;;;;;7.03;3.30;;;5.00;99.90;;;;;;5073922;28;20496;-71
2021/01/14 09:48:57;;;;;;;5.63;3.70;;;5.00;99.90;;;;;;5074318;28;20798;-69
2021/01/14 09:51:23;;;;;;;6.67;3.30;;;5.00;99.90;;;;;;5074227;28;20426;-70
2021/01/14 09:53:49;;;;;;;6.30;2.97;;;5.10;99.90;;;;;;5073879;28;20787;-69
2021/01/14 09:56:22;;;;;;;7.53;3.60;;;5.10;99.90;;;;;;5074061;28;20182;-70
2021/01/14 09:58:52;;;;;;;4.43;3.40;;;5.10;99.90;;;;;;5073734;28;20430;-71
2021/01/14 10:01:19;;;;;;;4.93;3.67;;;5.20;99.90;;;;;;5073754;28;20415;-70
2021/01/14 10:03:50;;;;;;;8.53;3.40;;;5.20;99.90;;;;;;5074101;28;20478;-72
2021/01/14 10:06:16;;;;;;;9.07;4.63;;;5.10;99.90;;;;;;5073718;28;20468;-71
2021/01/14 10:12:05;;;;;;;3.23;2.80;;;5.20;99.90;;;;;;5073596;28;20457;-71
2021/01/14 10:14:30;;;;;;;5.67;4.30;;;5.10;99.90;;;;;;5073818;28;20430;-71
2021/01/14 10:17:06;;;;;;;4.83;3.10;;;5.10;99.90;;;;;;5072748;28;20427;-73
2021/01/14 10:19:36;;;;;;;10.27;4.60;;;5.10;99.90;;;;;;5073822;28;20683;-74
2021/01/14 10:22:05;;;;;;;6.67;3.93;;;5.10;99.90;;;;;;5073840;28;20418;-72
2021/01/14 10:24:31;;;;;;;5.13;3.13;;;5.20;99.90;;;;;;5073450;28;20450;-73
2021/01/14 10:27:16;;;;;;;6.23;3.97;;;5.20;99.90;;;;;;5073435;28;20631;-74
2021/01/14 10:29:43;;;;;;;8.43;4.00;;;5.30;99.90;;;;;;5072020;28;20631;-71
2021/01/14 10:32:15;;;;;;;6.10;3.70;;;5.30;99.90;;;;;;5073754;28;20447;-72
2021/01/14 10:34:42;;;;;;;5.70;3.70;;;5.20;99.90;;;;;;5073600;28;20446;-70
2021/01/14 10:37:18;;;;;;;8.53;4.03;;;5.10;99.90;;;;;;5073445;28;20417;-73
2021/01/14 10:39:43;;;;;;;5.80;3.57;;;5.10;99.90;;;;;;5073529;28;20450;-77
2021/01/14 10:42:37;;;;;;;6.47;4.07;;;5.10;99.90;;;;;;5073344;28;20495;-71
2021/01/14 10:45:03;;;;;;;4.57;3.70;;;5.10;99.90;;;;;;5073640;28;20264;-74
2021/01/14 10:47:29;;;;;;;8.53;3.97;;;5.10;99.90;;;;;;5073751;28;20960;-73
2021/01/14 10:49:54;;;;;;;5.43;4.27;;;5.10;99.90;;;;;;5073175;28;20169;-72
2021/01/14 10:52:20;;;;;;;6.43;3.50;;;5.10;99.90;;;;;;5073175;28;20565;-72
2021/01/14 10:55:00;;;;;;;6.57;4.40;;;5.00;99.90;;;;;;5073130;28;20424;-73
2021/01/14 10:57:48;;;;;;;11.57;4.50;;;5.10;99.90;;;;;;5071792;28;20176;-73
2021/01/14 11:03:35;;;;;;;9.30;4.50;;;5.10;99.90;;;;;;5073269;28;20533;-72
2021/01/14 11:06:01;;;;;;;7.07;3.53;;;5.30;99.90;;;;;;5073399;28;20952;-71
2021/01/14 11:08:41;;;;;;;9.17;3.90;;;5.30;99.90;;;;;;5072898;28;20221;-72
2021/01/14 11:11:14;;;;;;;5.40;3.50;;;5.30;99.90;;;;;;5073036;28;20178;-72
2021/01/14 11:17:01;;;;;;;8.80;4.50;;;5.20;99.90;;;;;;5073098;28;20438;-71
2021/01/14 11:22:48;;;;;;;4.33;3.13;;;5.10;99.90;;;;;;5073059;28;20169;-71
2021/01/14 11:28:38;;;;;;;12.13;5.20;;;5.20;99.90;;;;;;5072977;28;20226;-72
2021/01/14 11:31:04;;;;;;;8.97;4.40;;;5.10;99.90;;;;;;5072625;28;20519;-72
2021/01/14 11:36:52;;;;;;;3.43;3.03;;;5.20;99.90;;;;;;5076583;28;20409;-80
2021/01/14 11:42:39;;;;;;;7.60;4.73;;;4.90;99.90;;;;;;5076546;28;20218;-75
2021/01/14 11:48:27;;;;;;;7.77;5.00;;;5.00;99.90;;;;;;5076232;28;20322;-74
2021/01/14 11:54:14;;;;;;;5.70;4.33;;;4.80;99.90;;;;;;5077270;28;20164;-72
2021/01/14 11:56:39;;;;;;;9.37;4.23;;;4.80;99.90;;;;;;5077522;28;20808;-74
2021/01/14 12:02:29;;;;;;;9.60;4.57;;;4.80;99.90;;;;;;5076964;28;20193;-74
2021/01/14 12:08:16;;;;;;;5.67;4.10;;;5.00;99.90;;;;;;5075912;28;20463;-73
2021/01/14 12:14:03;;;;;;;6.23;3.57;;;5.00;99.90;;;;;;5075847;28;20179;-73
2021/01/14 12:16:29;;;;;;;5.90;3.77;;;5.10;99.90;;;;;;5075707;28;20425;-76
2021/01/14 12:18:55;;;;;;;5.93;3.60;;;5.10;99.90;;;;;;5076102;28;20175;-76
2021/01/14 12:21:20;;;;;;;8.10;3.10;;;5.30;99.90;;;;;;5076208;28;20303;-76
2021/01/14 12:23:46;;;;;;;4.00;3.50;;;5.20;99.90;;;;;;5075906;28;20232;-75
2021/01/14 12:26:12;;;;;;;4.53;3.90;;;5.30;99.90;;;;;;5075902;28;20188;-75
2021/01/14 12:28:38;;;;;;;5.47;3.47;;;5.20;99.90;;;;;;5075723;28;20465;-76
2021/01/14 12:31:03;;;;;;;4.57;3.70;;;5.30;99.90;;;;;;5075361;28;20363;-75
2021/01/14 12:33:29;;;;;;;7.20;4.80;;;5.30;99.90;;;;;;5075649;28;20224;-75
2021/01/14 12:35:54;;;;;;;4.57;3.73;;;5.20;99.90;;;;;;5075398;28;20173;-76
2021/01/14 12:38:20;;;;;;;3.97;3.47;;;5.20;99.90;;;;;;5075644;28;20216;-75
2021/01/14 12:40:45;;;;;;;7.13;3.77;;;5.40;99.90;;;;;;5073861;28;20217;-75
2021/01/14 12:46:42;;;;;;;4.80;3.87;;;5.30;99.90;;;;;;5073929;28;20166;-72
2021/01/14 12:49:09;;;;;;;4.60;3.20;;;5.20;99.90;;;;;;5075106;28;20434;-72
2021/01/14 12:54:56;;;;;;;4.90;3.77;;;5.20;99.90;;;;;;5075088;28;20928;-72
2021/01/14 12:57:21;;;;;;;5.27;3.77;;;5.10;99.90;;;;;;5074835;28;20428;-72
2021/01/14 12:59:47;;;;;;;4.93;3.80;;;5.10;99.90;;;;;;5074885;28;20176;-72
2021/01/14 13:02:12;;;;;;;3.77;3.30;;;5.00;99.90;;;;;;5075090;28;20177;-74
2021/01/14 13:08:00;;;;;;;6.40;4.50;;;5.00;99.90;;;;;;5074848;28;20266;-73
2021/01/14 13:14:13;;;;;;;6.60;4.17;;;5.10;99.90;;;;;;5074677;28;20547;-73
2021/01/14 13:20:01;;;;;;;6.30;3.43;;;5.20;99.90;;;;;;5074538;28;20194;-73
2021/01/14 13:22:27;;;;;;;5.20;4.00;;;5.00;99.90;;;;;;5075294;28;20437;-74
2021/01/14 13:28:14;;;;;;;4.97;4.40;;;5.20;99.90;;;;;;5074292;28;20211;-75
2021/01/14 13:30:39;;;;;;;4.70;3.80;;;5.20;99.90;;;;;;5074101;28;20456;-74
2021/01/14 13:33:06;;;;;;;6.50;3.70;;;5.10;99.90;;;;;;5074202;28;20182;-74
2021/01/14 13:35:31;;;;;;;5.60;3.93;;;5.00;99.90;;;;;;5074237;28;20180;-73
2021/01/14 13:41:19;;;;;;;5.10;4.27;;;5.00;99.90;;;;;;5074152;28;20173;-72
2021/01/14 13:47:06;;;;;;;9.20;4.80;;;5.00;99.90;;;;;;5073948;28;20251;-71
2021/01/14 13:52:54;;;;;;;5.40;4.67;;;5.00;99.90;;;;;;5074020;28;20532;-72
2021/01/14 13:58:41;;;;;;;6.97;4.67;;;5.00;99.90;;;;;;5073492;28;20181;-72
2021/01/14 14:01:07;;;;;;;12.70;6.00;;;5.10;99.90;;;;;;5074232;28;20429;-72
2021/01/14 14:03:32;;;;;;;9.60;5.00;;;5.10;99.90;;;;;;5073998;28;20630;-71
2021/01/14 14:05:58;;;;;;;6.67;4.73;;;5.10;99.90;;;;;;5073669;28;20183;-72
2021/01/14 14:08:24;;;;;;;5.93;4.50;;;5.10;99.90;;;;;;5073582;28;20210;-72
2021/01/14 14:14:13;;;;;;;4.77;3.50;;;5.10;99.90;;;;;;5073938;28;20394;-75
2021/01/14 14:16:40;;;;;;;6.23;4.37;;;5.10;99.90;;;;;;5073924;28;20434;-80
2021/01/14 14:19:05;;;;;;;5.70;3.93;;;5.10;99.90;;;;;;5073515;28;20428;-78
2021/01/14 14:21:31;;;;;;;5.20;3.97;;;5.10;99.90;;;;;;5073698;28;20428;-77
2021/01/14 14:23:58;;;;;;;6.20;3.80;;;5.10;99.90;;;;;;5073951;28;20263;-77
2021/01/14 14:26:29;;;;;;;6.00;4.00;;;5.10;99.90;;;;;;5073396;28;20708;-77
2021/01/14 14:28:55;;;;;;;4.70;4.30;;;5.00;99.90;;;;;;5073755;28;20420;-78
2021/01/14 14:31:21;;;;;;;4.63;3.43;;;5.10;99.90;;;;;;5073221;28;20550;-74
2021/01/14 14:37:08;;;;;;;6.23;3.57;;;4.90;99.90;;;;;;5073281;28;20678;-73
2021/01/14 14:39:39;;;;;;;5.60;3.87;;;5.00;99.90;;;;;;5073333;28;20527;-73
2021/01/14 14:42:06;;;;;;;5.53;3.60;;;4.90;99.90;;;;;;5073425;28;20179;-72
2021/01/14 14:44:31;;;;;;;4.90;3.63;;;4.90;99.90;;;;;;5072379;28;20803;-72
2021/01/14 14:46:57;;;;;;;3.73;3.10;;;4.80;99.90;;;;;;5072012;28;20476;-71
2021/01/14 14:49:22;;;;;;;9.40;4.13;;;4.80;99.90;;;;;;5073228;28;20179;-72
2021/01/14 14:51:49;;;;;;;6.10;3.90;;;4.80;99.90;;;;;;5073550;28;20178;-70
2021/01/14 14:54:15;;;;;;;6.57;4.57;;;4.90;99.90;;;;;;5073507;28;20181;-72
2021/01/14 15:00:03;;;;;;;7.43;4.87;;;4.90;99.90;;;;;;5072956;28;20161;-71
2021/01/14 15:02:29;;;;;;;10.00;4.40;;;4.70;99.90;;;;;;5072996;28;20430;-71
2021/01/14 15:08:16;;;;;;;4.67;3.40;;;4.90;99.90;;;;;;5073055;28;20259;-83
2021/01/14 15:14:04;;;;;;;7.27;4.30;;;4.80;99.90;;;;;;5077143;28;20248;-67
2021/01/14 15:16:29;;;;;;;6.43;4.53;;;4.70;99.90;;;;;;5077029;28;20455;-67
2021/01/14 15:18:55;;;;;;;5.13;3.97;;;4.60;99.90;;;;;;5076556;28;20170;-67
2021/01/14 15:24:44;;;;;;;4.00;3.47;;;4.80;99.90;;;;;;5076836;28;20194;-67
2021/01/14 15:27:10;;;;;;;5.95;4.50;;;4.70;99.90;;;;;;5076159;28;20441;-67
2021/01/14 15:29:35;;;;;;;6.67;4.63;;;4.70;99.90;;;;;;5076939;28;20205;-68
2021/01/14 15:32:01;;;;;;;7.63;4.00;;;4.70;99.90;;;;;;5076450;28;20596;-67
2021/01/14 15:37:49;;;;;;;9.10;3.80;;;4.70;99.90;;;;;;5076641;28;20196;-67
2021/01/14 15:43:36;;;;;;;6.60;4.53;;;4.60;99.90;;;;;;5076503;28;20482;-67
2021/01/14 15:46:02;;;;;;;5.33;4.67;;;4.50;99.90;;;;;;5076637;28;20418;-67
2021/01/14 15:48:28;;;;;;;4.90;4.40;;;4.70;99.90;;;;;;5076582;28;20663;-67
2021/01/14 15:50:53;;;;;;;8.57;5.20;;;4.70;99.90;;;;;;5076598;28;20276;-67
2021/01/14 15:53:20;;;;;;;6.13;4.03;;;4.70;99.90;;;;;;5076530;28;20223;-67
2021/01/14 15:59:35;;;;;;;17.60;5.20;;;4.60;99.90;;;;;;5076053;28;20444;-67
2021/01/14 16:05:23;;;;;;;6.45;4.10;;;4.60;99.90;;;;;;5075772;28;20793;-68
2021/01/14 16:07:48;;;;;;;7.90;5.30;;;4.50;99.90;;;;;;5076243;28;20213;-68
2021/01/14 16:10:14;;;;;;;6.40;4.27;;;4.60;99.90;;;;;;5076146;28;20202;-68
2021/01/14 16:12:40;;;;;;;7.37;4.87;;;4.70;99.90;;;;;;5076196;28;20670;-68
2021/01/14 16:15:07;;;;;;;8.10;4.80;;;4.70;99.90;;;;;;5076168;28;20174;-68
2021/01/14 16:17:33;;;;;;;6.80;5.53;;;4.50;99.90;;;;;;5076094;28;20440;-68
2021/01/14 16:19:58;;;;;;;7.57;5.57;;;4.50;99.90;;;;;;5075893;28;20432;-68
2021/01/14 16:22:24;;;;;;;9.43;6.10;;;4.40;99.90;;;;;;5075627;28;20226;-68
2021/01/14 16:24:50;;;;;;;8.53;5.50;;;4.40;99.90;;;;;;5076011;28;20172;-68
2021/01/14 16:30:38;;;;;;;18.53;6.73;;;4.40;99.90;;;;;;5075580;28;20542;-68
2021/01/14 16:36:25;;;;;;;10.73;8.23;;;4.50;99.90;;;;;;5075386;28;20215;-68
2021/01/14 16:42:12;;;;;;;11.07;6.93;;;4.40;99.90;;;;;;5075349;28;20260;-68
2021/01/14 16:44:38;;;;;;;13.80;7.20;;;4.40;99.90;;;;;;5076020;28;20451;-68
2021/01/14 16:47:06;;;;;;;12.03;6.90;;;4.40;99.90;;;;;;5075490;28;20209;-68
2021/01/14 16:49:33;;;;;;;10.20;6.60;;;4.30;99.90;;;;;;5075450;28;20539;-68
2021/01/14 16:55:20;;;;;;;13.50;7.70;;;4.30;99.90;;;;;;5075059;28;20557;-68
2021/01/14 17:01:13;;;;;;;14.40;8.40;;;4.30;99.90;;;;;;5074900;28;20157;-68
2021/01/14 17:03:39;;;;;;;13.67;8.97;;;4.30;99.90;;;;;;5075241;28;20420;-68
2021/01/14 17:06:06;;;;;;;10.30;7.23;;;4.40;99.90;;;;;;5075084;28;20417;-68
2021/01/14 17:08:31;;;;;;;11.07;7.40;;;4.40;99.90;;;;;;5074911;28;20557;-68
2021/01/14 17:10:57;;;;;;;13.20;7.57;;;4.40;99.90;;;;;;5074959;28;20426;-68
2021/01/14 17:16:49;;;;;;;10.83;6.70;;;4.50;99.90;;;;;;5074529;28;20179;-68
2021/01/14 17:19:15;;;;;;;17.40;10.03;;;4.60;99.90;;;;;;5074405;28;20427;-69
2021/01/14 17:21:41;;;;;;;11.07;7.90;;;4.60;99.90;;;;;;5074793;28;20821;-68
2021/01/14 17:24:07;;;;;;;12.80;7.77;;;4.60;99.90;;;;;;5074450;28;20513;-68
2021/01/14 17:26:34;;;;;;;14.27;8.77;;;4.60;99.90;;;;;;5074589;28;20263;-68
2021/01/14 17:29:03;;;;;;;14.00;7.30;;;4.60;99.90;;;;;;5074581;28;20424;-68
2021/01/14 17:31:29;;;;;;;14.90;9.50;;;4.50;99.90;;;;;;5074061;28;20460;-68
2021/01/14 17:37:16;;;;;;;10.03;8.00;;;4.50;99.90;;;;;;5074150;28;20494;-67
2021/01/14 17:39:42;;;;;;;13.60;9.17;;;4.60;99.90;;;;;;5074379;28;20507;-68
2021/01/14 17:42:08;;;;;;;12.37;8.77;;;4.60;99.90;;;;;;5074400;28;20591;-68
2021/01/14 17:47:55;;;;;;;13.27;9.67;;;4.60;99.90;;;;;;5073889;28;20209;-68
2021/01/14 17:50:20;;;;;;;18.97;9.90;;;4.60;99.90;;;;;;5074536;28;20421;-69
2021/01/14 17:52:46;;;;;;;20.90;9.10;;;4.70;99.90;;;;;;5073866;28;20629;-68
2021/01/14 17:55:12;;;;;;;13.83;9.17;;;4.70;99.90;;;;;;5074046;28;20300;-68
2021/01/14 17:57:37;;;;;;;13.77;8.67;;;4.70;99.90;;;;;;5074057;28;20181;-68
2021/01/14 18:00:23;;;;;;;15.23;9.17;;;4.70;99.90;;;;;;5074036;28;20846;-67
2021/01/14 18:02:49;;;;;;;16.33;8.67;;;4.60;99.90;;;;;;5073928;28;20190;-68
2021/01/14 18:05:15;;;;;;;18.17;10.23;;;4.70;99.90;;;;;;5073554;28;20907;-68
2021/01/14 18:11:03;;;;;;;14.77;9.03;;;4.60;99.90;;;;;;5073632;28;20415;-67
2021/01/14 18:13:29;;;;;;;13.90;8.77;;;4.60;99.90;;;;;;5073858;28;20419;-69
2021/01/14 18:15:54;;;;;;;14.80;10.43;;;4.60;99.90;;;;;;5073865;28;20441;-69
2021/01/14 18:21:42;;;;;;;13.73;9.23;;;4.60;99.90;;;;;;5073705;28;20170;-69
2021/01/14 18:24:08;;;;;;;11.47;9.30;;;4.60;99.90;;;;;;5075848;28;20428;-68
2021/01/14 18:26:34;;;;;;;14.27;9.20;;;4.60;99.90;;;;;;5073031;28;20182;-67
2021/01/14 18:28:59;;;;;;;13.90;9.23;;;4.70;99.90;;;;;;5073281;28;20443;-68
2021/01/14 18:31:25;;;;;;;14.07;9.43;;;4.60;99.90;;;;;;5073015;28;20236;-68
2021/01/14 18:33:51;;;;;;;14.63;9.23;;;4.70;99.90;;;;;;5073427;28;20483;-68
2021/01/14 18:36:29;;;;;;;17.23;8.33;;;4.60;99.90;;;;;;5073462;28;20185;-67
2021/01/14 18:38:55;;;;;;;15.47;9.03;;;4.60;99.90;;;;;;5073532;28;20478;-75
2021/01/14 18:44:42;;;;;;;10.30;6.40;;;4.50;99.90;;;;;;5072354;28;20399;-68
2021/01/14 18:47:08;;;;;;;12.77;7.13;;;4.50;99.90;;;;;;5073487;28;20826;-67
2021/01/14 18:49:34;;;;;;;9.53;6.43;;;4.50;99.90;;;;;;5073507;28;20646;-68
2021/01/14 18:52:02;;;;;;;7.40;5.50;;;4.60;99.90;;;;;;5073424;28;20623;-70
2021/01/14 18:54:28;;;;;;;7.87;6.57;;;4.70;99.90;;;;;;5073478;28;20206;-72
2021/01/14 19:00:16;;;;;;;10.30;5.83;;;4.70;99.90;;;;;;5073071;28;20654;-67
2021/01/14 19:02:43;;;;;;;6.93;6.00;;;4.70;99.90;;;;;;5073864;28;20428;-66
2021/01/14 19:05:10;;;;;;;7.93;6.27;;;4.60;99.90;;;;;;5073305;28;20520;-66
2021/01/14 19:07:37;;;;;;;7.47;5.37;;;4.60;99.90;;;;;;5073199;28;20556;-66
2021/01/14 19:10:04;;;;;;;7.10;5.47;;;4.70;99.90;;;;;;5072920;28;20426;-66
2021/01/14 19:12:30;;;;;;;6.80;5.37;;;4.60;99.90;;;;;;5072863;28;20411;-66
2021/01/14 19:18:18;;;;;;;7.10;4.30;;;4.70;99.90;;;;;;5072904;28;20177;-67
2021/01/14 19:20:43;;;;;;;9.90;4.97;;;4.70;99.90;;;;;;5072877;28;20416;-69
2021/01/14 19:23:09;;;;;;;6.63;5.17;;;4.70;99.90;;;;;;5073084;28;20209;-69
2021/01/14 19:25:36;;;;;;;5.33;3.33;;;4.70;99.90;;;;;;5073073;28;20194;-69
2021/01/14 19:28:02;;;;;;;7.80;4.30;;;4.80;99.90;;;;;;5073021;28;20478;-69
2021/01/14 19:30:27;;;;;;;4.83;4.33;;;4.70;99.90;;;;;;5072584;28;20464;-69
2021/01/14 19:32:53;;;;;;;6.53;3.50;;;4.70;99.90;;;;;;5073056;28;20234;-69
2021/01/14 19:35:18;;;;;;;7.27;3.93;;;4.60;99.90;;;;;;5072926;28;20174;-68
2021/01/14 19:37:45;;;;;;;4.03;3.30;;;4.60;99.90;;;;;;5072942;28;20225;-66
2021/01/14 19:40:13;;;;;;;11.73;5.37;;;4.60;99.90;;;;;;5072962;28;20185;-66
2021/01/14 19:42:40;;;;;;;5.77;3.67;;;4.60;99.90;;;;;;5072925;28;20419;-67
2021/01/14 19:45:07;;;;;;;5.33;3.60;;;4.50;99.90;;;;;;5072827;28;20427;-66
2021/01/14 19:50:54;;;;;;;10.23;5.20;;;4.50;99.90;;;;;;5072592;28;20465;-67
2021/01/14 19:53:20;;;;;;;6.73;4.60;;;4.50;99.90;;;;;;5072544;28;20412;-66
2021/01/14 19:55:45;;;;;;;5.83;4.43;;;4.60;99.90;;;;;;5073809;28;20175;-67
2021/01/14 20:01:33;;;;;;;7.33;4.10;;;4.60;99.90;;;;;;5076107;28;20235;-66
2021/01/14 20:03:58;;;;;;;7.57;4.97;;;4.60;99.90;;;;;;5076226;28;20437;-67
2021/01/14 20:06:24;;;;;;;8.70;5.60;;;4.60;99.90;;;;;;5076242;28;20244;-67
2021/01/14 20:08:50;;;;;;;7.70;5.80;;;4.60;99.90;;;;;;5076126;28;20247;-67
2021/01/14 20:11:16;;;;;;;7.87;5.80;;;4.60;99.90;;;;;;5075871;28;20428;-67
2021/01/14 20:13:44;;;;;;;6.90;5.70;;;4.60;99.90;;;;;;5075991;28;20432;-67
2021/01/14 20:16:12;;;;;;;8.03;5.50;;;4.70;99.90;;;;;;5075889;28;20182;-66
2021/01/14 20:18:41;;;;;;;8.23;6.37;;;4.80;99.90;;;;;;5074713;28;20925;-68
2021/01/14 20:21:08;;;;;;;9.70;6.10;;;4.70;99.90;;;;;;5075945;28;20479;-68
2021/01/14 20:23:33;;;;;;;9.60;6.40;;;4.60;99.90;;;;;;5075920;28;20482;-69
2021/01/14 20:26:00;;;;;;;9.23;6.70;;;4.60;99.90;;;;;;5075646;28;20810;-69
2021/01/14 20:28:27;;;;;;;7.97;6.33;;;4.60;99.90;;;;;;5075818;28;20210;-70
2021/01/14 20:30:53;;;;;;;12.97;7.50;;;4.60;99.90;;;;;;5075423;28;20853;-69
2021/01/14 20:33:19;;;;;;;8.00;7.03;;;4.70;99.90;;;;;;5075370;28;20423;-69